Time;durP1;ratioP1;P1;durP2;ratioP2;P2;SDS_P1;SDS_P2;PMS_P1;PMS_P2;Temp;Humidity;BMP_temperature;BMP_pressure;BME280_temperature;BME280_humidity;BME280_pressure;Samples;Min_cycle;Max_cycle;Signal;HPM_P1;HPM_P2
2022/07/30 00:01:39;;;;;;;8.32;2.38;;;18.40;81.30;;;;;;5025163;28;20438;-74
2022/07/30 00:04:04;;;;;;;7.85;2.50;;;18.40;81.60;;;;;;5021820;28;20025;-74
2022/07/30 00:06:31;;;;;;;4.18;2.25;;;18.40;81.50;;;;;;5021951;28;20029;-73
2022/07/30 00:08:57;;;;;;;5.00;2.20;;;18.40;81.80;;;;;;5025174;28;20032;-74
2022/07/30 00:11:23;;;;;;;5.20;2.38;;;18.30;82.10;;;;;;5022056;28;20065;-74
2022/07/30 00:13:48;;;;;;;8.15;2.38;;;18.40;81.90;;;;;;5021622;28;20498;-74
2022/07/30 00:16:14;;;;;;;4.47;2.53;;;18.20;82.00;;;;;;5019366;28;20436;-74
2022/07/30 00:18:40;;;;;;;6.95;2.55;;;18.30;81.80;;;;;;5017513;28;20037;-74
2022/07/30 00:21:05;;;;;;;7.40;2.22;;;18.30;82.00;;;;;;5028200;28;20038;-74
2022/07/30 00:23:31;;;;;;;6.28;2.20;;;18.30;82.00;;;;;;5024741;28;20022;-74
2022/07/30 00:25:57;;;;;;;5.72;2.20;;;18.30;81.90;;;;;;5023241;28;20030;-74
2022/07/30 00:28:22;;;;;;;7.50;1.92;;;18.30;82.30;;;;;;5025281;28;20029;-74
2022/07/30 00:30:48;;;;;;;8.93;2.63;;;18.30;82.30;;;;;;5024821;28;20036;-74
2022/07/30 00:33:13;;;;;;;5.90;2.53;;;18.20;82.50;;;;;;5028328;28;20033;-74
2022/07/30 00:35:39;;;;;;;7.18;2.65;;;18.20;82.60;;;;;;5022439;28;20064;-74
2022/07/30 00:38:04;;;;;;;7.85;2.35;;;18.20;82.70;;;;;;5029008;28;20045;-74
2022/07/30 00:40:30;;;;;;;5.80;1.95;;;18.20;82.80;;;;;;5024430;28;20022;-74
2022/07/30 00:42:55;;;;;;;11.40;2.30;;;18.20;82.90;;;;;;5020593;28;20030;-74
2022/07/30 00:45:21;;;;;;;4.45;1.83;;;18.20;83.10;;;;;;5018062;28;20466;-74
2022/07/30 00:47:46;;;;;;;3.97;1.80;;;18.20;83.10;;;;;;5026042;28;20021;-73
2022/07/30 00:50:14;;;;;;;3.55;2.00;;;18.20;83.10;;;;;;5027202;28;20052;-74
2022/07/30 00:52:40;;;;;;;4.25;2.30;;;18.10;83.00;;;;;;5023549;28;20026;-74
2022/07/30 00:55:09;;;;;;;5.80;2.00;;;18.10;83.10;;;;;;5025946;28;20038;-74
2022/07/30 00:57:34;;;;;;;6.38;2.38;;;18.00;83.60;;;;;;5024962;28;20108;-74
2022/07/30 01:00:00;;;;;;;6.10;2.00;;;18.10;83.70;;;;;;5027530;28;20518;-74
2022/07/30 01:02:26;;;;;;;6.90;2.25;;;18.00;83.40;;;;;;5029017;28;20064;-74
2022/07/30 01:04:51;;;;;;;7.50;2.30;;;18.00;84.00;;;;;;5025845;28;20406;-72
2022/07/30 01:07:17;;;;;;;5.60;2.38;;;18.00;84.20;;;;;;5027355;28;20397;-73
2022/07/30 01:09:42;;;;;;;4.57;2.20;;;18.00;84.20;;;;;;5022168;28;20508;-73
2022/07/30 01:12:08;;;;;;;5.28;2.00;;;18.00;84.80;;;;;;5025003;28;20037;-73
2022/07/30 01:14:35;;;;;;;7.13;2.33;;;17.90;85.00;;;;;;5026643;28;20041;-73
2022/07/30 01:17:01;;;;;;;5.55;2.28;;;18.00;84.80;;;;;;5026298;28;20030;-72
2022/07/30 01:19:47;;;;;;;8.90;2.80;;;18.00;85.10;;;;;;5030501;28;20029;-73
2022/07/30 01:22:29;;;;;;;8.20;2.30;;;18.00;85.00;;;;;;5029650;28;20057;-73
2022/07/30 01:25:16;;;;;;;10.85;2.13;;;18.00;85.00;;;;;;5027210;28;20033;-73
2022/07/30 01:27:50;;;;;;;5.43;2.53;;;17.90;85.40;;;;;;5029267;28;20032;-73
2022/07/30 01:30:20;;;;;;;6.72;2.40;;;17.90;85.60;;;;;;5026759;28;20065;-73
2022/07/30 01:32:46;;;;;;;4.03;2.15;;;17.90;85.60;;;;;;5020626;28;20079;-73
2022/07/30 01:35:13;;;;;;;8.10;2.20;;;17.90;85.80;;;;;;5018322;28;20029;-73
2022/07/30 01:37:41;;;;;;;4.70;2.13;;;17.90;85.90;;;;;;5029080;28;20049;-73
2022/07/30 01:40:08;;;;;;;7.70;2.30;;;17.90;86.00;;;;;;5026391;28;20508;-73
2022/07/30 01:42:36;;;;;;;5.18;2.45;;;17.90;86.90;;;;;;5028934;28;20035;-73
2022/07/30 01:45:03;;;;;;;6.25;2.60;;;17.90;87.80;;;;;;5025155;28;20063;-73
2022/07/30 01:47:31;;;;;;;4.75;2.70;;;17.80;88.50;;;;;;5025570;28;20037;-73
2022/07/30 01:49:58;;;;;;;7.43;3.03;;;17.60;88.90;;;;;;5028869;28;20033;-73
2022/07/30 01:52:29;;;;;;;4.13;2.30;;;17.50;89.50;;;;;;5029751;28;20044;-73
2022/07/30 01:54:56;;;;;;;7.32;2.70;;;17.50;89.70;;;;;;5025779;28;20081;-73
2022/07/30 01:57:23;;;;;;;6.15;2.55;;;17.50;90.10;;;;;;5029192;28;20461;-73
2022/07/30 01:59:53;;;;;;;4.80;2.70;;;17.50;90.60;;;;;;5024919;28;20495;-73
2022/07/30 02:02:19;;;;;;;7.50;2.57;;;17.50;90.40;;;;;;5012557;28;20034;-73
2022/07/30 02:04:45;;;;;;;7.47;2.70;;;17.50;90.50;;;;;;5029761;28;20111;-73
2022/07/30 02:07:26;;;;;;;7.65;2.80;;;17.40;90.40;;;;;;5018607;28;20099;-73
2022/07/30 02:10:00;;;;;;;6.57;2.50;;;17.40;90.70;;;;;;5027454;28;20029;-73
2022/07/30 02:12:27;;;;;;;9.00;2.78;;;17.30;90.40;;;;;;5018817;28;20037;-73
2022/07/30 02:15:07;;;;;;;6.15;2.70;;;17.30;90.60;;;;;;5026820;28;20061;-73
2022/07/30 02:17:54;;;;;;;11.07;3.38;;;17.30;90.90;;;;;;5025273;28;21473;-73
2022/07/30 02:20:23;;;;;;;7.32;2.65;;;17.30;91.00;;;;;;5029365;28;20105;-73
2022/07/30 02:22:49;;;;;;;7.35;2.80;;;17.30;90.70;;;;;;5025125;28;20021;-73
2022/07/30 02:25:19;;;;;;;7.45;2.90;;;17.30;90.40;;;;;;5017377;28;20060;-73
2022/07/30 02:27:51;;;;;;;8.27;2.88;;;17.30;90.70;;;;;;5025221;28;20025;-73
2022/07/30 02:30:17;;;;;;;7.68;2.60;;;17.30;90.80;;;;;;5023348;28;20029;-73
2022/07/30 02:32:45;;;;;;;9.68;3.08;;;17.30;90.70;;;;;;5023122;28;20060;-73
2022/07/30 02:35:18;;;;;;;5.90;2.72;;;17.30;90.70;;;;;;5027935;28;20056;-73
2022/07/30 02:37:46;;;;;;;15.60;2.80;;;17.30;90.70;;;;;;5029144;28;20049;-73
2022/07/30 02:40:15;;;;;;;10.43;3.13;;;17.30;90.80;;;;;;5026988;28;20026;-73
2022/07/30 02:42:44;;;;;;;7.63;2.60;;;17.30;90.80;;;;;;5021017;28;20079;-73
2022/07/30 02:45:11;;;;;;;6.10;2.65;;;17.30;90.70;;;;;;5027054;28;20104;-73
2022/07/30 02:47:38;;;;;;;8.18;3.28;;;17.20;90.90;;;;;;5024852;28;20448;-73
2022/07/30 02:50:05;;;;;;;10.25;3.03;;;17.20;91.00;;;;;;5025088;28;20049;-73
2022/07/30 02:52:31;;;;;;;8.57;2.70;;;17.20;90.70;;;;;;5023935;28;20032;-73
2022/07/30 02:54:59;;;;;;;6.00;3.05;;;17.20;91.00;;;;;;5024934;28;20212;-73
2022/07/30 02:57:26;;;;;;;7.70;3.13;;;17.20;91.10;;;;;;5028779;28;20058;-73
2022/07/30 02:59:54;;;;;;;7.13;3.38;;;17.20;91.60;;;;;;5027627;28;20239;-73
2022/07/30 03:02:21;;;;;;;7.75;3.83;;;17.10;91.40;;;;;;5022775;28;20354;-73
2022/07/30 03:04:47;;;;;;;7.05;3.38;;;17.10;91.90;;;;;;5028036;28;20464;-73
2022/07/30 03:07:13;;;;;;;12.23;3.75;;;17.10;92.50;;;;;;5028516;28;20033;-73
2022/07/30 03:09:42;;;;;;;6.43;3.50;;;17.10;92.60;;;;;;5018016;28;20033;-73
2022/07/30 03:12:11;;;;;;;9.10;3.67;;;17.00;93.00;;;;;;5026965;28;20033;-73
2022/07/30 03:14:36;;;;;;;9.65;4.07;;;17.00;93.50;;;;;;5024187;28;20044;-73
2022/07/30 03:17:03;;;;;;;11.93;4.47;;;17.00;93.90;;;;;;5018914;28;20386;-73
2022/07/30 03:19:31;;;;;;;9.75;4.35;;;16.90;94.10;;;;;;5020516;28;20029;-73
2022/07/30 03:21:59;;;;;;;7.63;4.75;;;16.90;94.40;;;;;;5022772;28;20025;-73
2022/07/30 03:24:25;;;;;;;10.00;4.22;;;16.80;94.60;;;;;;5018935;28;20033;-73
2022/07/30 03:26:53;;;;;;;5.75;4.20;;;16.90;94.80;;;;;;5021182;28;20208;-73
2022/07/30 03:29:21;;;;;;;9.73;4.68;;;16.80;95.00;;;;;;5021118;28;20461;-73
2022/07/30 03:31:48;;;;;;;7.35;4.40;;;16.80;95.20;;;;;;5025305;28;20037;-73
2022/07/30 03:34:13;;;;;;;11.82;5.53;;;16.80;95.50;;;;;;5013904;28;20070;-73
2022/07/30 03:36:40;;;;;;;8.73;4.97;;;16.80;95.50;;;;;;5022191;28;20026;-74
2022/07/30 03:39:06;;;;;;;11.43;5.32;;;16.80;95.60;;;;;;5013825;28;20458;-73
2022/07/30 03:41:34;;;;;;;9.75;5.15;;;16.80;95.80;;;;;;5027348;28;20461;-74
2022/07/30 03:44:00;;;;;;;8.50;5.57;;;16.80;95.90;;;;;;5025497;28;20021;-74
2022/07/30 03:46:26;;;;;;;15.55;5.60;;;16.70;96.00;;;;;;5017169;28;20068;-74
2022/07/30 03:48:53;;;;;;;9.95;5.45;;;16.70;96.00;;;;;;5022931;28;20107;-74
2022/07/30 03:51:18;;;;;;;10.65;5.78;;;16.80;96.00;;;;;;5020086;28;20362;-74
2022/07/30 03:53:45;;;;;;;9.80;5.88;;;16.70;95.90;;;;;;5026008;28;20144;-74
2022/07/30 03:56:13;;;;;;;9.77;5.68;;;16.70;96.10;;;;;;5021695;28;20113;-74
2022/07/30 03:58:39;;;;;;;9.23;5.75;;;16.50;96.00;;;;;;5030502;28;20428;-74
2022/07/30 04:01:05;;;;;;;11.32;5.57;;;16.50;96.20;;;;;;5030366;28;20021;-74
2022/07/30 04:03:32;;;;;;;11.00;5.15;;;16.50;96.20;;;;;;5017648;28;20406;-74
2022/07/30 04:05:58;;;;;;;10.85;5.63;;;16.50;96.30;;;;;;5029371;28;20439;-74
2022/07/30 04:08:24;;;;;;;11.35;5.20;;;16.50;96.40;;;;;;5022775;28;20385;-74
2022/07/30 04:10:50;;;;;;;10.23;6.15;;;16.50;96.40;;;;;;5031378;28;20048;-74
2022/07/30 04:13:16;;;;;;;13.00;6.53;;;16.60;96.40;;;;;;5023257;28;20029;-74
2022/07/30 04:16:09;;;;;;;12.43;5.90;;;16.60;96.70;;;;;;5015843;28;20037;-74
2022/07/30 04:18:39;;;;;;;12.13;6.40;;;16.60;96.60;;;;;;5028921;28;20032;-73
2022/07/30 04:21:07;;;;;;;10.85;5.57;;;16.50;96.60;;;;;;5032796;28;20033;-73
2022/07/30 04:23:33;;;;;;;10.35;5.28;;;16.50;96.60;;;;;;5032218;28;20489;-73
2022/07/30 04:26:00;;;;;;;8.40;5.43;;;16.50;96.70;;;;;;5031561;28;20039;-73
2022/07/30 04:28:26;;;;;;;9.45;5.90;;;16.50;96.70;;;;;;5023546;28;20033;-73
2022/07/30 04:30:53;;;;;;;10.93;5.85;;;16.50;96.80;;;;;;5028732;28;20377;-73
2022/07/30 04:33:18;;;;;;;12.43;5.78;;;16.50;96.70;;;;;;5029286;28;20104;-73
2022/07/30 04:35:44;;;;;;;11.30;5.72;;;16.50;96.70;;;;;;5030379;28;20108;-73
2022/07/30 04:38:11;;;;;;;10.77;5.55;;;16.50;96.60;;;;;;5030740;28;20041;-73
2022/07/30 04:40:37;;;;;;;10.80;5.55;;;16.40;97.00;;;;;;5029867;28;20022;-73
2022/07/30 04:43:02;;;;;;;9.18;6.22;;;16.40;96.80;;;;;;5030725;28;20725;-73
2022/07/30 04:45:27;;;;;;;10.40;5.90;;;16.40;96.90;;;;;;5032747;28;20033;-73
2022/07/30 04:47:53;;;;;;;8.02;6.22;;;16.30;96.90;;;;;;5028758;28;20132;-73
2022/07/30 04:50:21;;;;;;;9.20;5.82;;;16.50;97.10;;;;;;5026167;28;20034;-73
2022/07/30 04:52:47;;;;;;;9.68;5.78;;;16.40;97.00;;;;;;5030446;28;20028;-73
2022/07/30 04:55:13;;;;;;;10.05;6.38;;;16.40;97.00;;;;;;5031968;28;20033;-73
2022/07/30 04:57:41;;;;;;;13.13;6.10;;;16.40;96.90;;;;;;5032557;28;20056;-73
2022/07/30 05:00:08;;;;;;;10.65;6.50;;;16.40;96.70;;;;;;5032569;28;20075;-73
2022/07/30 05:02:36;;;;;;;9.93;5.95;;;16.30;96.70;;;;;;5029814;28;20133;-73
2022/07/30 05:05:03;;;;;;;10.75;5.65;;;16.30;96.80;;;;;;5030930;28;20030;-73
2022/07/30 05:07:30;;;;;;;12.52;6.03;;;16.30;96.80;;;;;;5032118;28;20021;-73
2022/07/30 05:09:56;;;;;;;10.38;5.72;;;16.40;96.70;;;;;;5031803;28;20025;-73
2022/07/30 05:12:36;;;;;;;9.55;5.70;;;16.40;96.80;;;;;;5031823;28;20018;-73
2022/07/30 05:15:03;;;;;;;9.60;6.47;;;16.40;96.90;;;;;;5028018;28;20025;-73
2022/07/30 05:17:28;;;;;;;11.50;6.43;;;16.50;96.80;;;;;;5026859;28;20099;-73
2022/07/30 05:19:54;;;;;;;10.90;6.57;;;16.50;97.10;;;;;;5029117;28;20061;-73
2022/07/30 05:22:19;;;;;;;14.23;6.30;;;16.40;97.20;;;;;;5031448;28;20475;-73
2022/07/30 05:24:45;;;;;;;12.27;6.30;;;16.50;97.30;;;;;;5031374;28;20040;-73
2022/07/30 05:27:10;;;;;;;12.98;6.55;;;16.40;97.20;;;;;;5031934;28;20392;-71
2022/07/30 05:29:36;;;;;;;8.45;6.57;;;16.40;97.40;;;;;;5031637;28;20396;-71
2022/07/30 05:32:01;;;;;;;9.85;6.45;;;16.40;97.40;;;;;;5029890;28;20030;-71
2022/07/30 05:34:27;;;;;;;13.32;7.30;;;16.40;97.30;;;;;;5030561;28;20040;-71
2022/07/30 05:36:52;;;;;;;11.45;6.22;;;16.40;97.40;;;;;;5031490;28;20033;-71
2022/07/30 05:39:18;;;;;;;12.50;6.97;;;16.40;97.40;;;;;;5030804;28;20038;-71
2022/07/30 05:41:43;;;;;;;12.23;7.18;;;16.40;97.40;;;;;;5031538;28;20531;-71
2022/07/30 05:44:09;;;;;;;10.18;6.97;;;16.40;97.40;;;;;;5031565;28;20100;-71
2022/07/30 05:46:34;;;;;;;12.13;7.25;;;16.50;97.40;;;;;;5030121;28;20033;-71
2022/07/30 05:49:00;;;;;;;12.35;7.00;;;16.50;97.50;;;;;;5026623;28;20025;-71
2022/07/30 05:51:25;;;;;;;9.57;6.90;;;16.50;97.40;;;;;;5031600;28;20443;-71
2022/07/30 05:53:51;;;;;;;13.00;7.07;;;16.50;97.50;;;;;;5027537;28;20029;-71
2022/07/30 05:56:16;;;;;;;8.35;6.75;;;16.50;97.30;;;;;;5030139;28;20543;-71
2022/07/30 05:58:42;;;;;;;11.60;7.10;;;16.60;97.20;;;;;;5031528;28;20096;-71
2022/07/30 06:01:08;;;;;;;9.50;6.65;;;16.60;97.20;;;;;;5031040;28;20112;-71
2022/07/30 06:03:33;;;;;;;8.57;6.38;;;16.60;97.10;;;;;;5022324;28;20029;-71
2022/07/30 06:06:01;;;;;;;11.57;7.00;;;16.70;97.00;;;;;;5030263;28;20483;-71
2022/07/30 06:08:26;;;;;;;14.30;7.13;;;16.80;97.10;;;;;;5030817;28;20112;-71
2022/07/30 06:10:52;;;;;;;12.00;7.13;;;16.80;96.90;;;;;;5030952;28;20108;-71
2022/07/30 06:13:17;;;;;;;10.25;6.20;;;16.80;96.70;;;;;;5025543;28;20116;-71
2022/07/30 06:15:43;;;;;;;9.65;6.53;;;16.90;96.70;;;;;;5030636;28;20029;-71
2022/07/30 06:18:08;;;;;;;11.10;6.15;;;16.90;96.40;;;;;;5026655;28;20509;-71
2022/07/30 06:20:34;;;;;;;9.93;5.55;;;17.00;96.20;;;;;;5030131;28;20038;-71
2022/07/30 06:22:59;;;;;;;6.80;4.80;;;17.00;96.00;;;;;;5030270;28;20048;-71
2022/07/30 06:25:25;;;;;;;7.72;5.20;;;17.10;95.90;;;;;;5022681;28;20049;-71
2022/07/30 06:27:50;;;;;;;7.70;5.40;;;17.20;95.90;;;;;;5030710;28;20477;-71
2022/07/30 06:30:16;;;;;;;8.98;5.25;;;17.30;96.00;;;;;;5030971;28;20496;-71
2022/07/30 06:32:44;;;;;;;7.47;5.53;;;17.40;95.90;;;;;;5027588;28;20060;-71
2022/07/30 06:35:09;;;;;;;13.13;5.30;;;17.40;95.60;;;;;;5030035;28;20025;-71
2022/07/30 06:37:35;;;;;;;9.02;4.78;;;17.40;95.60;;;;;;5029987;28;20037;-71
2022/07/30 06:40:00;;;;;;;9.27;4.57;;;17.50;95.70;;;;;;5029402;28;20025;-71
2022/07/30 06:42:27;;;;;;;9.18;4.75;;;17.40;95.30;;;;;;5030182;28;20100;-71
2022/07/30 06:44:52;;;;;;;7.75;4.95;;;17.50;95.30;;;;;;5030538;28;20329;-71
2022/07/30 06:47:25;;;;;;;9.70;4.65;;;17.60;95.30;;;;;;5028474;28;20037;-71
2022/07/30 06:49:50;;;;;;;9.23;4.72;;;17.70;95.30;;;;;;5027581;28;20060;-71
2022/07/30 06:52:16;;;;;;;9.13;5.07;;;17.70;95.50;;;;;;5020312;28;20084;-71
2022/07/30 06:54:41;;;;;;;9.02;4.70;;;17.70;95.10;;;;;;5018376;28;20116;-71
2022/07/30 06:57:07;;;;;;;9.23;4.95;;;17.70;94.60;;;;;;5030320;28;20041;-71
2022/07/30 06:59:32;;;;;;;9.02;4.28;;;17.90;94.80;;;;;;5030413;28;20030;-71
2022/07/30 07:01:58;;;;;;;9.27;4.15;;;18.00;94.30;;;;;;5028642;28;20033;-71
2022/07/30 07:04:23;;;;;;;7.53;4.03;;;18.00;94.40;;;;;;5029236;28;20109;-72
2022/07/30 07:06:49;;;;;;;6.75;4.10;;;18.10;93.80;;;;;;5030486;28;20063;-71
2022/07/30 07:09:14;;;;;;;7.70;4.45;;;18.00;93.40;;;;;;5029637;28;20068;-72
2022/07/30 07:11:40;;;;;;;6.85;4.05;;;18.20;93.60;;;;;;5030127;28;20025;-71
2022/07/30 07:14:05;;;;;;;10.05;4.22;;;18.30;93.60;;;;;;5025936;28;20132;-71
2022/07/30 07:16:31;;;;;;;7.82;4.30;;;18.40;93.50;;;;;;5028892;28;20099;-71
2022/07/30 07:18:56;;;;;;;7.35;4.07;;;18.30;93.00;;;;;;5028140;28;20451;-71
2022/07/30 07:21:22;;;;;;;5.97;4.07;;;18.50;93.10;;;;;;5026432;28;20021;-71
2022/07/30 07:23:47;;;;;;;7.90;4.25;;;18.30;92.20;;;;;;5028866;28;20052;-72
2022/07/30 07:26:14;;;;;;;7.15;4.13;;;18.40;92.70;;;;;;5030397;28;20548;-72
2022/07/30 07:28:40;;;;;;;9.60;4.15;;;18.40;92.90;;;;;;5033256;28;20037;-72
2022/07/30 07:31:06;;;;;;;4.63;3.90;;;18.30;92.30;;;;;;5032799;28;20113;-72
2022/07/30 07:33:32;;;;;;;8.73;4.03;;;18.40;92.40;;;;;;5032215;28;20029;-72
2022/07/30 07:35:57;;;;;;;8.45;4.05;;;18.30;92.50;;;;;;5033178;28;20064;-71
2022/07/30 07:38:23;;;;;;;7.95;4.43;;;18.30;92.40;;;;;;5033827;28;20083;-72
2022/07/30 07:40:48;;;;;;;6.13;3.97;;;18.40;92.90;;;;;;5033546;28;20128;-72
2022/07/30 07:43:14;;;;;;;6.97;3.97;;;18.30;92.30;;;;;;5033748;28;20104;-72
2022/07/30 07:45:42;;;;;;;8.13;4.10;;;18.30;92.40;;;;;;5034190;28;20021;-72
2022/07/30 07:48:07;;;;;;;6.90;3.88;;;18.40;91.80;;;;;;5018820;28;20032;-71
2022/07/30 07:50:33;;;;;;;6.28;3.95;;;18.10;91.60;;;;;;5030758;28;20384;-71
2022/07/30 07:52:59;;;;;;;6.22;4.22;;;18.20;91.90;;;;;;5033580;28;20029;-71
2022/07/30 07:55:24;;;;;;;7.35;4.32;;;18.30;91.90;;;;;;5033324;28;20021;-72
2022/07/30 07:57:53;;;;;;;7.63;3.75;;;18.50;92.50;;;;;;5033313;28;20041;-72
2022/07/30 08:00:18;;;;;;;13.07;4.07;;;18.60;92.40;;;;;;5033793;28;20045;-72
2022/07/30 08:02:44;;;;;;;9.55;4.45;;;18.50;91.80;;;;;;5031435;28;20048;-72
2022/07/30 08:05:13;;;;;;;6.43;4.13;;;18.50;91.40;;;;;;5033038;28;20092;-72
2022/07/30 08:07:40;;;;;;;6.90;4.35;;;18.50;91.50;;;;;;5033151;28;20353;-72
2022/07/30 08:10:06;;;;;;;8.88;4.30;;;18.40;91.50;;;;;;5032595;28;20435;-72
2022/07/30 08:12:32;;;;;;;8.50;4.47;;;18.30;91.70;;;;;;5027798;28;20049;-71
2022/07/30 08:14:57;;;;;;;9.88;4.90;;;18.10;91.30;;;;;;5033513;28;20079;-72
2022/07/30 08:17:23;;;;;;;8.20;4.88;;;18.10;91.60;;;;;;5031537;28;20033;-71
2022/07/30 08:19:49;;;;;;;12.10;5.35;;;18.00;91.90;;;;;;5032597;28;20055;-71
2022/07/30 08:22:14;;;;;;;11.68;5.35;;;17.90;92.40;;;;;;5031265;28;20045;-72
2022/07/30 08:24:40;;;;;;;10.65;5.53;;;18.00;92.70;;;;;;5032546;28;20048;-72
2022/07/30 08:27:06;;;;;;;9.30;5.45;;;18.00;92.90;;;;;;5033199;28;20477;-72
2022/07/30 08:29:31;;;;;;;8.70;5.40;;;18.00;92.90;;;;;;5033236;28;20113;-71
2022/07/30 08:31:57;;;;;;;10.10;5.47;;;17.90;93.00;;;;;;5031919;28;20485;-72
2022/07/30 08:34:23;;;;;;;7.60;5.07;;;17.90;93.20;;;;;;5028818;28;20504;-72
2022/07/30 08:36:48;;;;;;;10.20;5.57;;;17.90;93.60;;;;;;5033053;28;20025;-72
2022/07/30 08:39:14;;;;;;;9.38;5.63;;;18.00;93.60;;;;;;5031676;28;20544;-72
2022/07/30 08:41:41;;;;;;;8.18;5.95;;;17.90;93.80;;;;;;5032679;28;20030;-72
2022/07/30 08:44:10;;;;;;;11.65;6.38;;;17.90;93.70;;;;;;5032592;28;20026;-72
2022/07/30 08:46:39;;;;;;;11.65;6.38;;;17.90;93.70;;;;;;5028328;28;20038;-72
2022/07/30 08:49:05;;;;;;;11.25;6.18;;;17.90;93.70;;;;;;5025928;28;20033;-71
2022/07/30 08:51:31;;;;;;;9.82;6.97;;;17.90;93.30;;;;;;5030832;28;20045;-71
2022/07/30 08:53:57;;;;;;;12.65;6.10;;;17.90;93.20;;;;;;5031866;28;20338;-71
2022/07/30 08:56:23;;;;;;;12.60;6.95;;;17.90;93.40;;;;;;5032816;28;20037;-72
2022/07/30 08:58:49;;;;;;;9.40;6.78;;;17.80;93.40;;;;;;5032701;28;20072;-72
2022/07/30 09:01:14;;;;;;;9.52;6.45;;;17.80;93.40;;;;;;5032111;28;20044;-72
2022/07/30 09:03:40;;;;;;;11.52;7.15;;;17.90;93.40;;;;;;5031353;28;20431;-71
2022/07/30 09:06:05;;;;;;;11.98;7.50;;;17.80;93.00;;;;;;5032197;28;20083;-72
2022/07/30 09:08:31;;;;;;;11.95;7.55;;;17.90;93.20;;;;;;5031457;28;20057;-72
2022/07/30 09:10:57;;;;;;;14.10;7.00;;;18.00;93.10;;;;;;5026583;28;20030;-71
2022/07/30 09:13:28;;;;;;;9.68;6.82;;;18.00;93.00;;;;;;5031591;28;20495;-72
2022/07/30 09:15:54;;;;;;;15.95;7.47;;;18.10;92.90;;;;;;5032453;28;20044;-71
2022/07/30 09:18:29;;;;;;;11.45;7.38;;;18.10;92.70;;;;;;5030049;28;20021;-72
2022/07/30 09:20:56;;;;;;;12.60;6.85;;;18.20;92.10;;;;;;5031748;28;20397;-72
2022/07/30 09:23:21;;;;;;;13.00;7.07;;;18.30;92.10;;;;;;5027884;28;20030;-72
2022/07/30 09:25:48;;;;;;;13.70;7.25;;;18.40;91.70;;;;;;5020851;28;20075;-72
2022/07/30 09:28:14;;;;;;;11.30;6.90;;;18.60;92.00;;;;;;5032088;28;20025;-72
2022/07/30 09:30:52;;;;;;;11.68;7.10;;;18.60;91.50;;;;;;5032162;28;20022;-72
2022/07/30 09:33:45;;;;;;;9.38;6.65;;;18.60;91.30;;;;;;5028137;28;20082;-72
2022/07/30 09:36:13;;;;;;;11.80;6.55;;;18.80;91.50;;;;;;5030565;28;20045;-72
2022/07/30 09:38:52;;;;;;;9.48;6.43;;;18.80;90.70;;;;;;5030729;28;20080;-72
2022/07/30 09:41:31;;;;;;;10.48;7.10;;;19.00;90.20;;;;;;5031802;28;20029;-72
2022/07/30 09:44:00;;;;;;;10.40;6.43;;;19.00;90.20;;;;;;5031749;28;20018;-72
2022/07/30 09:46:49;;;;;;;11.27;6.72;;;19.00;89.60;;;;;;5028788;28;20033;-72
2022/07/30 09:49:20;;;;;;;10.10;6.50;;;19.10;89.00;;;;;;5022366;28;20377;-72
2022/07/30 09:51:46;;;;;;;10.63;6.35;;;19.30;88.90;;;;;;5029840;28;20116;-72
2022/07/30 09:54:11;;;;;;;12.45;6.47;;;19.30;88.90;;;;;;5030683;28;20454;-72
2022/07/30 09:56:38;;;;;;;9.00;6.43;;;19.40;88.40;;;;;;5031793;28;20846;-72
2022/07/30 09:59:05;;;;;;;11.93;6.30;;;19.40;88.30;;;;;;5031198;28;20126;-72
2022/07/30 10:01:49;;;;;;;11.95;6.45;;;19.40;87.90;;;;;;5030295;28;20485;-72
2022/07/30 10:04:27;;;;;;;13.75;6.35;;;19.50;88.00;;;;;;5029707;28;20030;-72
2022/07/30 10:06:54;;;;;;;8.70;6.65;;;19.60;88.30;;;;;;5031505;28;20373;-72
2022/07/30 10:09:33;;;;;;;9.85;6.15;;;19.70;87.50;;;;;;5030230;28;20512;-72
2022/07/30 10:12:02;;;;;;;10.13;6.13;;;19.70;87.30;;;;;;5026830;28;20385;-72
2022/07/30 10:14:32;;;;;;;9.98;6.50;;;19.90;86.90;;;;;;5030968;28;20032;-72
2022/07/30 10:16:58;;;;;;;9.65;5.72;;;19.90;86.90;;;;;;5029680;28;20030;-72
2022/07/30 10:19:24;;;;;;;10.27;5.85;;;20.00;86.10;;;;;;5030187;28;20040;-72
2022/07/30 10:21:52;;;;;;;11.77;6.00;;;20.20;86.10;;;;;;5025713;28;20079;-72
2022/07/30 10:24:18;;;;;;;7.47;5.07;;;20.30;85.70;;;;;;5030331;28;20037;-72
2022/07/30 10:26:45;;;;;;;9.00;5.68;;;20.50;85.00;;;;;;5031171;28;20087;-72
2022/07/30 10:29:13;;;;;;;9.32;5.30;;;20.70;85.20;;;;;;5030774;28;20476;-72
2022/07/30 10:31:39;;;;;;;12.38;6.00;;;20.70;84.30;;;;;;5029538;28;20504;-72
2022/07/30 10:34:06;;;;;;;22.83;5.93;;;20.80;84.30;;;;;;5028939;28;20021;-72
2022/07/30 10:36:33;;;;;;;10.32;4.82;;;21.00;84.10;;;;;;5031277;28;20033;-72
2022/07/30 10:38:59;;;;;;;9.43;5.22;;;21.00;83.00;;;;;;5029216;28;20164;-72
2022/07/30 10:42:03;;;;;;;8.80;4.85;;;21.20;82.90;;;;;;5030971;28;20022;-72
2022/07/30 10:44:40;;;;;;;5.53;3.78;;;21.40;82.30;;;;;;5026723;28;20026;-72
2022/07/30 10:47:08;;;;;;;8.13;4.65;;;21.50;81.60;;;;;;5026073;28;20041;-72
2022/07/30 10:49:35;;;;;;;14.93;4.88;;;21.50;81.30;;;;;;5029825;28;20101;-72
2022/07/30 10:52:00;;;;;;;17.30;4.88;;;21.50;80.00;;;;;;5019776;28;20076;-72
2022/07/30 10:54:32;;;;;;;61.90;6.30;;;21.70;80.40;;;;;;5029765;28;20061;-72
2022/07/30 10:57:14;;;;;;;12.35;4.43;;;21.70;79.10;;;;;;5030366;28;20108;-72
2022/07/30 10:59:48;;;;;;;5.18;4.05;;;21.80;79.50;;;;;;5030644;28;20020;-72
2022/07/30 11:02:14;;;;;;;11.65;4.57;;;22.20;79.90;;;;;;5025703;28;20032;-72
2022/07/30 11:04:40;;;;;;;10.45;3.95;;;22.30;79.20;;;;;;5029485;28;20033;-72
2022/07/30 11:07:21;;;;;;;10.90;4.28;;;22.50;78.50;;;;;;5030600;28;20079;-73
2022/07/30 11:09:48;;;;;;;16.20;4.78;;;22.60;77.10;;;;;;5017889;28;20390;-73
2022/07/30 11:12:13;;;;;;;8.32;3.63;;;22.70;77.30;;;;;;5015863;28;20041;-73
2022/07/30 11:14:45;;;;;;;7.75;3.83;;;22.70;75.90;;;;;;5030231;28;20029;-73
2022/07/30 11:17:15;;;;;;;7.63;3.83;;;22.70;74.60;;;;;;5028130;28;20026;-73
2022/07/30 11:20:08;;;;;;;9.20;3.65;;;23.00;75.20;;;;;;5029725;28;20115;-73
2022/07/30 11:22:39;;;;;;;7.85;3.47;;;23.20;73.50;;;;;;5028003;28;20762;-73
2022/07/30 11:25:06;;;;;;;7.75;3.50;;;23.20;73.80;;;;;;5029735;28;20025;-73
2022/07/30 11:27:47;;;;;;;6.75;3.75;;;23.40;74.60;;;;;;5030095;28;20026;-73
2022/07/30 11:30:15;;;;;;;7.30;3.50;;;23.60;73.40;;;;;;5030229;28;20025;-73
2022/07/30 11:32:43;;;;;;;4.70;3.22;;;23.60;72.10;;;;;;5027600;28;20040;-73
2022/07/30 11:35:11;;;;;;;7.28;2.95;;;23.60;71.70;;;;;;5029057;28;20026;-73
2022/07/30 11:37:58;;;;;;;4.10;2.53;;;23.90;71.70;;;;;;5029442;28;20584;-73
2022/07/30 11:40:29;;;;;;;6.80;2.75;;;23.90;67.20;;;;;;5022098;28;20032;-73
2022/07/30 11:43:31;;;;;;;7.40;3.03;;;24.00;67.60;;;;;;5024828;28;20368;-73
2022/07/30 11:46:09;;;;;;;8.23;3.10;;;23.90;67.50;;;;;;5019083;28;20378;-73
2022/07/30 11:48:36;;;;;;;5.03;2.83;;;24.10;67.50;;;;;;5028220;28;20068;-73
2022/07/30 11:51:03;;;;;;;6.70;3.20;;;24.20;69.10;;;;;;5027607;28;20481;-73
2022/07/30 11:53:29;;;;;;;5.40;2.75;;;24.50;67.20;;;;;;5028731;28;20029;-73
2022/07/30 11:55:57;;;;;;;4.90;2.95;;;24.50;66.20;;;;;;5029962;28;20044;-73
2022/07/30 11:58:34;;;;;;;9.48;2.92;;;24.60;65.00;;;;;;5029434;28;20075;-73
2022/07/30 12:01:02;;;;;;;11.43;2.63;;;25.10;63.60;;;;;;5030476;28;20416;-73
2022/07/30 12:03:32;;;;;;;6.57;2.90;;;25.30;63.80;;;;;;5028078;28;20034;-73
2022/07/30 12:06:05;;;;;;;11.40;3.17;;;25.20;62.80;;;;;;5029502;28;20435;-73
2022/07/30 12:08:44;;;;;;;6.15;2.92;;;25.70;61.10;;;;;;5028844;28;20018;-73
2022/07/30 12:11:10;;;;;;;6.28;2.92;;;25.50;61.50;;;;;;5029294;28;20018;-73
2022/07/30 12:13:37;;;;;;;6.60;2.60;;;25.80;59.70;;;;;;5030400;28;20037;-73
2022/07/30 12:16:14;;;;;;;4.28;2.10;;;26.50;60.90;;;;;;5033659;28;20022;-73
2022/07/30 12:18:40;;;;;;;5.05;2.08;;;27.10;57.00;;;;;;5030713;28;20060;-73
2022/07/30 12:21:08;;;;;;;5.75;2.40;;;27.50;56.80;;;;;;5030696;28;20051;-73
2022/07/30 12:23:34;;;;;;;4.75;2.10;;;28.10;53.70;;;;;;5032646;28;20096;-73
2022/07/30 12:26:00;;;;;;;8.05;2.08;;;28.30;51.40;;;;;;5033494;28;20055;-73
2022/07/30 12:28:31;;;;;;;3.30;1.92;;;28.70;50.50;;;;;;5033136;28;20021;-73
2022/07/30 12:30:58;;;;;;;5.15;2.63;;;28.40;53.00;;;;;;5032212;28;20029;-73
2022/07/30 12:33:24;;;;;;;4.90;1.98;;;28.70;51.80;;;;;;5024024;28;20060;-74
2022/07/30 12:35:55;;;;;;;4.05;1.45;;;28.70;53.30;;;;;;5031914;28;20028;-72
2022/07/30 12:38:22;;;;;;;5.18;2.03;;;29.00;50.30;;;;;;5033046;28;20052;-72
2022/07/30 12:40:58;;;;;;;4.93;1.85;;;29.00;51.00;;;;;;5032010;28;20033;-71
2022/07/30 12:43:47;;;;;;;4.72;1.95;;;28.90;50.50;;;;;;5020503;28;20473;-72
2022/07/30 12:46:15;;;;;;;4.45;1.95;;;28.80;49.70;;;;;;5030705;28;20495;-72
2022/07/30 12:48:49;;;;;;;5.88;1.83;;;28.60;49.80;;;;;;5028924;28;20064;-71